createdAt,value
2022-08-07T00:00:52.261Z,21.05
2022-08-07T00:03:55.161Z,20.84
2022-08-07T00:06:56.721Z,20.67
2022-08-07T00:10:25.430Z,20.70
2022-08-07T00:13:25.822Z,20.64
2022-08-07T00:16:28.330Z,20.47
2022-08-07T00:20:00.077Z,20.38
2022-08-07T00:22:54.716Z,20.52
2022-08-07T00:26:00.079Z,20.51
2022-08-07T00:29:02.034Z,20.35
2022-08-07T00:32:06.884Z,20.42
2022-08-07T00:35:09.084Z,20.43
2022-08-07T00:38:10.575Z,20.50
2022-08-07T00:41:15.291Z,20.60
2022-08-07T00:44:16.989Z,19.92
2022-08-07T00:48:09.237Z,19.42
2022-08-07T00:50:50.346Z,19.13
2022-08-07T00:53:55.905Z,19.11
2022-08-07T00:56:57.782Z,18.84
2022-08-07T00:59:59.625Z,18.47
2022-08-07T01:03:01.297Z,18.84
2022-08-07T01:06:03.196Z,19.26
2022-08-07T01:09:05.309Z,19.05
2022-08-07T01:12:28.843Z,18.88
2022-08-07T01:15:36.081Z,18.30
2022-08-07T01:18:56.159Z,18.51
2022-08-07T01:22:00.102Z,18.48
2022-08-07T01:25:40.245Z,18.71
2022-08-07T01:28:33.205Z,19.33
2022-08-07T01:31:42.725Z,19.50
2022-08-07T01:34:50.704Z,19.21
2022-08-07T01:37:53.528Z,19.02
2022-08-07T01:40:59.750Z,19.12
2022-08-07T01:44:03.232Z,18.85
2022-08-07T01:47:14.318Z,18.36
2022-08-07T01:50:32.114Z,18.76
2022-08-07T01:54:12.540Z,19.08
2022-08-07T01:57:24.948Z,19.32
2022-08-07T02:00:31.159Z,19.25
2022-08-07T02:03:49.195Z,18.70
2022-08-07T02:06:57.351Z,18.36
2022-08-07T02:10:02.535Z,17.90
2022-08-07T02:13:10.470Z,17.66
2022-08-07T02:16:28.349Z,18.09
2022-08-07T02:20:04.374Z,18.84
2022-08-07T02:22:59.941Z,18.38
2022-08-07T02:26:30.926Z,17.88
2022-08-07T02:29:28.497Z,17.93
2022-08-07T02:32:33.672Z,17.64
2022-08-07T02:36:29.080Z,17.53
2022-08-07T02:39:16.600Z,17.59
2022-08-07T02:42:21.871Z,17.44
2022-08-07T02:46:00.479Z,17.40
2022-08-07T02:48:55.237Z,18.18
2022-08-07T02:52:00.505Z,18.42
2022-08-07T02:55:28.622Z,18.37
2022-08-07T02:58:47.388Z,18.00
2022-08-07T03:01:52.229Z,17.40
2022-08-07T03:04:59.903Z,17.34
2022-08-07T03:08:10.521Z,17.03
2022-08-07T03:11:17.572Z,17.12
2022-08-07T03:14:22.616Z,16.85
2022-08-07T03:17:25.908Z,16.84
2022-08-07T03:20:29.604Z,16.88
2022-08-07T03:23:33.884Z,16.96
2022-08-07T03:26:59.511Z,16.94
2022-08-07T03:30:08.425Z,17.07
2022-08-07T03:33:14.377Z,16.62
2022-08-07T03:36:19.056Z,16.65
2022-08-07T03:39:59.637Z,17.62
2022-08-07T03:42:45.148Z,17.62
2022-08-07T03:45:48.921Z,16.93
2022-08-07T03:49:03.005Z,17.07
2022-08-07T03:52:22.726Z,17.67
2022-08-07T03:55:57.822Z,17.34
2022-08-07T03:59:09.353Z,16.88
2022-08-07T04:02:15.837Z,16.69
2022-08-07T04:05:28.756Z,16.40
2022-08-07T04:08:43.248Z,16.78
2022-08-07T04:12:24.310Z,17.44
2022-08-07T04:15:11.969Z,17.56
2022-08-07T04:18:57.866Z,17.10
2022-08-07T04:21:36.475Z,16.39
2022-08-07T04:24:41.100Z,16.18
2022-08-07T04:27:46.184Z,16.34
2022-08-07T04:31:03.299Z,16.66
2022-08-07T04:34:16.717Z,16.69
2022-08-07T04:37:20.658Z,16.51
2022-08-07T04:40:30.178Z,16.38
2022-08-07T04:44:12.929Z,16.65
2022-08-07T04:47:56.937Z,17.24
2022-08-07T04:51:02.235Z,17.05
2022-08-07T04:54:16.167Z,16.52
2022-08-07T04:58:10.520Z,16.42
2022-08-07T05:04:47.147Z,17.26
2022-08-07T05:08:02.020Z,17.17
2022-08-07T05:11:11.048Z,16.55
2022-08-07T05:14:55.450Z,16.01
2022-08-07T05:18:09.363Z,16.78
2022-08-07T05:21:18.725Z,17.35
2022-08-07T05:24:41.457Z,16.77
2022-08-07T05:28:03.239Z,17.32
2022-08-07T05:31:16.774Z,17.47
2022-08-07T05:34:20.768Z,17.65
2022-08-07T05:37:29.796Z,17.52
2022-08-07T05:40:50.599Z,17.88
2022-08-07T05:44:08.334Z,17.99
2022-08-07T05:47:19.938Z,17.71
2022-08-07T05:50:25.358Z,17.90
2022-08-07T05:54:12.531Z,17.92
2022-08-07T05:56:54.604Z,18.14
2022-08-07T05:59:58.344Z,17.78
2022-08-07T06:03:07.235Z,17.87
2022-08-07T06:06:09.456Z,18.04
2022-08-07T06:09:14.819Z,18.29
2022-08-07T06:12:21.134Z,17.84
2022-08-07T06:15:39.526Z,17.83
2022-08-07T06:18:51.496Z,17.86
2022-08-07T06:22:15.859Z,17.57
2022-08-07T06:25:20.563Z,17.67
2022-08-07T06:28:27.502Z,17.54
2022-08-07T06:31:46.703Z,17.67
2022-08-07T06:34:52.574Z,17.94
2022-08-07T06:37:54.257Z,18.12
2022-08-07T06:40:59.135Z,18.25
2022-08-07T06:44:06.667Z,18.39
2022-08-07T06:47:15.552Z,18.13
2022-08-07T06:50:19.160Z,18.06
2022-08-07T06:55:29.104Z,18.01
2022-08-07T06:56:50.670Z,18.40
2022-08-07T07:00:15.073Z,18.48
2022-08-07T07:03:39.915Z,18.32
2022-08-07T07:07:00.297Z,18.42
2022-08-07T07:10:03.847Z,18.21
2022-08-07T07:13:40.575Z,18.80
2022-08-07T07:16:49.731Z,18.98
2022-08-07T07:19:59.561Z,18.98
2022-08-07T07:24:05.344Z,18.98
2022-08-07T07:26:34.426Z,19.34
2022-08-07T07:30:07.450Z,19.62
2022-08-07T07:33:11.801Z,19.96
2022-08-07T07:36:17.496Z,19.48
2022-08-07T07:39:22.794Z,19.71
2022-08-07T07:42:33.093Z,20.15
2022-08-07T07:46:36.691Z,20.26
2022-08-07T07:50:29.831Z,20.22
2022-08-07T07:52:25.065Z,20.40
2022-08-07T07:55:37.765Z,20.76
2022-08-07T07:58:49.486Z,21.16
2022-08-07T08:02:01.667Z,21.52
2022-08-07T08:05:14.512Z,21.37
2022-08-07T08:08:34.346Z,21.94
2022-08-07T08:11:59.780Z,21.65
2022-08-07T08:15:00.385Z,21.81
2022-08-07T08:18:02.122Z,22.25
2022-08-07T08:21:55.893Z,22.33
2022-08-07T08:25:41.965Z,22.95
2022-08-07T08:28:45.080Z,22.96
2022-08-07T08:32:17.612Z,23.49
2022-08-07T08:35:17.132Z,23.32
2022-08-07T08:38:25.783Z,23.32
2022-08-07T08:41:57.037Z,23.78
2022-08-07T08:45:26.731Z,24.03
2022-08-07T08:48:51.183Z,24.56
2022-08-07T08:52:16.787Z,24.19
2022-08-07T08:55:55.480Z,24.22
2022-08-07T08:59:06.379Z,24.67
2022-08-07T09:02:36.706Z,24.22
2022-08-07T09:05:55.897Z,24.58
2022-08-07T09:09:20.719Z,24.91
2022-08-07T09:12:53.203Z,25.15
2022-08-07T09:16:30.425Z,25.69
2022-08-07T09:19:55.232Z,25.60
2022-08-07T09:24:31.344Z,25.58
2022-08-07T09:26:47.823Z,25.25
2022-08-07T09:30:07.120Z,26.06
2022-08-07T09:33:40.969Z,26.30
2022-08-07T09:37:01.774Z,26.19
2022-08-07T09:40:17.816Z,25.16
2022-08-07T09:43:40.152Z,25.47
2022-08-07T09:47:49.423Z,26.39
2022-08-07T09:50:35.254Z,25.98
2022-08-07T09:53:41.145Z,25.93
2022-08-07T09:56:58.420Z,26.07
2022-08-07T10:00:14.710Z,26.28
2022-08-07T10:04:05.331Z,26.42
2022-08-07T10:07:52.320Z,26.58
2022-08-07T10:11:17.177Z,26.96
2022-08-07T10:14:47.524Z,27.64
2022-08-07T10:18:03.824Z,27.30
2022-08-07T10:22:15.977Z,27.11
2022-08-07T10:25:44.373Z,28.06
2022-08-07T10:29:18.006Z,28.16
2022-08-07T10:32:59.695Z,28.41
2022-08-07T10:36:11.370Z,27.87
2022-08-07T10:40:02.999Z,28.65
2022-08-07T10:43:19.311Z,28.60
2022-08-07T10:46:42.875Z,28.14
2022-08-07T10:49:56.849Z,28.08
2022-08-07T10:53:41.993Z,27.65
2022-08-07T10:57:03.185Z,28.75
2022-08-07T11:00:09.971Z,29.40
2022-08-07T11:03:52.480Z,29.33
2022-08-07T11:07:56.459Z,29.34
2022-08-07T11:11:00.057Z,29.87
2022-08-07T11:14:46.353Z,30.55
2022-08-07T11:18:06.073Z,30.08
2022-08-07T11:21:23.511Z,29.49
2022-08-07T11:24:37.631Z,29.83
2022-08-07T11:28:08.622Z,30.64
2022-08-07T11:31:26.956Z,31.41
2022-08-07T11:34:40.985Z,30.59
2022-08-07T11:37:58.272Z,29.94
2022-08-07T11:41:28.411Z,29.69
2022-08-07T11:44:58.786Z,30.06
2022-08-07T11:48:30.041Z,31.08
2022-08-07T11:52:05.709Z,31.13
2022-08-07T11:56:25.317Z,30.54
2022-08-07T11:59:00.963Z,31.17
2022-08-07T12:02:30.416Z,30.83
2022-08-07T12:05:49.505Z,31.12
2022-08-07T12:09:01.652Z,31.57
2022-08-07T12:12:11.614Z,30.82
2022-08-07T12:15:46.056Z,29.71
2022-08-07T12:18:57.740Z,29.53
2022-08-07T12:22:37.790Z,30.33
2022-08-07T12:26:21.875Z,30.14
2022-08-07T12:29:38.317Z,30.47
2022-08-07T12:32:40.833Z,30.64
2022-08-07T12:35:48.638Z,29.72
2022-08-07T12:39:09.293Z,29.63
2022-08-07T12:42:27.889Z,30.39
2022-08-07T12:46:32.843Z,29.45
2022-08-07T12:49:53.299Z,30.08
2022-08-07T12:53:17.639Z,29.47
2022-08-07T12:56:22.724Z,29.46
2022-08-07T12:59:37.125Z,29.64
2022-08-07T13:03:27.094Z,29.60
2022-08-07T13:07:00.981Z,30.07
2022-08-07T13:10:39.438Z,29.89
2022-08-07T13:13:57.775Z,29.03
2022-08-07T13:17:09.844Z,28.83
2022-08-07T13:20:27.752Z,29.14
2022-08-07T13:24:00.887Z,28.90
2022-08-07T13:27:15.023Z,28.38
2022-08-07T13:30:40.238Z,28.65
2022-08-07T13:34:33.767Z,28.63
2022-08-07T13:37:58.955Z,29.09
2022-08-07T13:41:16.718Z,28.85
2022-08-07T13:44:26.168Z,29.17
2022-08-07T13:48:06.389Z,29.38
2022-08-07T13:51:01.433Z,29.41
2022-08-07T13:54:09.337Z,28.85
2022-08-07T13:57:25.357Z,29.13
2022-08-07T14:00:39.533Z,28.82
2022-08-07T14:04:07.034Z,28.85
2022-08-07T14:07:11.772Z,28.67
2022-08-07T14:10:21.813Z,29.33
2022-08-07T14:13:33.505Z,29.38
2022-08-07T14:16:40.283Z,28.99
2022-08-07T14:20:43.229Z,29.45
2022-08-07T14:23:59.324Z,28.96
2022-08-07T14:26:51.141Z,29.05
2022-08-07T14:30:05.114Z,28.67
2022-08-07T14:33:10.209Z,28.73
2022-08-07T14:36:17.487Z,28.72
2022-08-07T14:40:15.606Z,28.42
2022-08-07T14:43:55.186Z,28.76
2022-08-07T14:46:07.778Z,29.28
2022-08-07T14:49:17.407Z,29.01
2022-08-07T14:52:36.067Z,29.33
2022-08-07T14:55:55.663Z,29.47
2022-08-07T14:59:13.844Z,29.21
2022-08-07T15:02:32.075Z,29.33
2022-08-07T15:05:54.991Z,29.13
2022-08-07T15:09:58.048Z,29.09
2022-08-07T15:12:41.987Z,28.96
2022-08-07T15:19:16.756Z,29.35
2022-08-07T15:25:46.582Z,29.30
2022-08-07T15:32:39.712Z,29.13
2022-08-07T15:36:01.987Z,29.26
2022-08-07T15:39:10.477Z,29.04
2022-08-07T15:42:48.131Z,29.20
2022-08-07T15:46:01.589Z,29.51
2022-08-07T15:49:14.513Z,29.30
2022-08-07T15:52:30.620Z,29.49
2022-08-07T15:56:01.915Z,29.18
2022-08-07T15:58:59.291Z,29.24
2022-08-07T16:02:02.857Z,29.29
2022-08-07T16:05:15.318Z,29.23
2022-08-07T16:08:31.123Z,29.21
2022-08-07T16:12:35.023Z,29.27
2022-08-07T16:15:57.920Z,29.32
2022-08-07T16:19:14.590Z,29.13
2022-08-07T16:22:55.057Z,29.01
2022-08-07T16:26:14.305Z,28.94
2022-08-07T16:30:11.749Z,29.03
2022-08-07T16:34:01.334Z,28.79
2022-08-07T16:37:02.444Z,28.90
2022-08-07T16:40:34.034Z,28.95
2022-08-07T16:44:46.379Z,28.95
2022-08-07T16:47:51.548Z,28.67
2022-08-07T16:51:21.834Z,28.82
2022-08-07T16:54:40.352Z,28.94
2022-08-07T16:58:08.026Z,28.77
2022-08-07T17:01:15.802Z,28.69
2022-08-07T17:04:50.858Z,28.66
2022-08-07T17:08:00.489Z,28.77
2022-08-07T17:11:14.415Z,28.53
2022-08-07T17:14:32.312Z,28.51
2022-08-07T17:17:47.664Z,28.51
2022-08-07T17:20:54.836Z,28.44
2022-08-07T17:24:23.731Z,28.38
2022-08-07T17:27:33.201Z,28.35
2022-08-07T17:30:58.164Z,28.42
2022-08-07T17:34:34.346Z,28.35
2022-08-07T17:38:05.788Z,28.42
2022-08-07T17:42:01.874Z,28.19
2022-08-07T17:44:50.628Z,28.27
2022-08-07T17:48:01.992Z,28.28
2022-08-07T17:51:21.588Z,28.08
2022-08-07T17:54:53.307Z,27.86
2022-08-07T17:58:08.785Z,27.97
2022-08-07T18:01:21.943Z,28.08
2022-08-07T18:04:35.095Z,27.99
2022-08-07T18:07:43.806Z,27.82
2022-08-07T18:12:08.248Z,27.85
2022-08-07T18:14:46.458Z,27.69
2022-08-07T18:18:46.422Z,27.67
2022-08-07T18:21:41.413Z,27.44
2022-08-07T18:24:51.500Z,27.33
2022-08-07T18:28:07.202Z,27.28
2022-08-07T18:31:18.583Z,27.45
2022-08-07T18:35:01.675Z,27.53
2022-08-07T18:38:57.382Z,27.47
2022-08-07T18:42:13.226Z,27.21
2022-08-07T18:45:45.032Z,27.24
2022-08-07T18:50:35.237Z,27.14
2022-08-07T18:52:40.769Z,27.20
2022-08-07T18:56:13.732Z,27.06
2022-08-07T18:59:47.981Z,26.90
2022-08-07T19:03:11.936Z,26.84
2022-08-07T19:06:48.293Z,26.87
2022-08-07T19:10:18.441Z,26.73
2022-08-07T19:13:35.542Z,26.76
2022-08-07T19:17:04.665Z,26.61
2022-08-07T19:20:29.901Z,26.53
2022-08-07T19:23:58.489Z,26.30
2022-08-07T19:28:58.102Z,26.41
2022-08-07T19:31:04.231Z,26.34
2022-08-07T19:33:58.393Z,26.27
2022-08-07T19:37:10.245Z,26.23
2022-08-07T19:40:31.623Z,26.00
2022-08-07T19:43:43.612Z,25.96
2022-08-07T19:47:06.622Z,25.99
2022-08-07T19:50:44.293Z,25.92
2022-08-07T19:54:33.258Z,25.79
2022-08-07T19:58:03.482Z,25.63
2022-08-07T20:00:29.811Z,25.70
2022-08-07T20:03:35.646Z,25.53
2022-08-07T20:06:43.159Z,25.61
2022-08-07T20:10:36.537Z,25.57
2022-08-07T20:13:23.039Z,25.32
2022-08-07T20:16:35.692Z,25.23
2022-08-07T20:19:48.051Z,25.39
2022-08-07T20:23:32.994Z,25.31
2022-08-07T20:26:44.927Z,24.74
2022-08-07T20:29:58.381Z,25.00
2022-08-07T20:33:03.991Z,25.01
2022-08-07T20:36:08.877Z,25.04
2022-08-07T20:39:31.129Z,25.09
2022-08-07T20:42:48.384Z,24.94
2022-08-07T20:46:29.108Z,24.57
2022-08-07T20:50:00.447Z,23.80
2022-08-07T20:52:51.017Z,23.51
2022-08-07T20:55:59.884Z,23.73
2022-08-07T20:59:05.279Z,24.05
2022-08-07T21:02:38.461Z,24.22
2022-08-07T21:05:56.142Z,24.22
2022-08-07T21:09:03.781Z,23.95
2022-08-07T21:12:16.495Z,23.57
2022-08-07T21:15:58.260Z,23.86
2022-08-07T21:18:59.992Z,23.69
2022-08-07T21:22:07.130Z,23.75
2022-08-07T21:25:13.059Z,23.44
2022-08-07T21:28:49.968Z,23.77
2022-08-07T21:32:43.991Z,23.15
2022-08-07T21:36:05.203Z,23.65
2022-08-07T21:39:46.259Z,22.71
2022-08-07T21:42:56.405Z,22.33
2022-08-07T21:46:10.609Z,22.78
2022-08-07T21:50:02.184Z,22.70
2022-08-07T21:53:24.410Z,21.65
2022-08-07T21:56:42.383Z,22.13
2022-08-07T22:00:23.110Z,21.94
2022-08-07T22:03:37.714Z,21.76
2022-08-07T22:06:49.878Z,21.59
2022-08-07T22:09:57.586Z,21.45
2022-08-07T22:13:05.765Z,21.54
2022-08-07T22:16:45.609Z,22.11
2022-08-07T22:19:58.677Z,22.14
2022-08-07T22:23:17.090Z,21.74
2022-08-07T22:26:26.749Z,21.60
2022-08-07T22:29:48.274Z,21.71
2022-08-07T22:33:06.119Z,22.46
2022-08-07T22:36:26.431Z,22.09
2022-08-07T22:39:52.737Z,21.78
2022-08-07T22:43:02.230Z,22.22
2022-08-07T22:47:02.755Z,22.11
2022-08-07T22:50:33.295Z,22.03
2022-08-07T22:54:06.641Z,21.40
2022-08-07T22:57:21.092Z,21.99
2022-08-07T23:00:34.524Z,21.83
2022-08-07T23:04:12.728Z,21.95
2022-08-07T23:07:39.926Z,20.81
2022-08-07T23:10:52.557Z,20.43
2022-08-07T23:14:28.718Z,20.88
2022-08-07T23:17:59.650Z,21.44
2022-08-07T23:21:05.194Z,21.38
2022-08-07T23:24:32.777Z,20.91
2022-08-07T23:28:21.758Z,19.87
2022-08-07T23:34:20.332Z,20.22
2022-08-07T23:35:13.463Z,20.99
2022-08-07T23:38:47.384Z,20.88
2022-08-07T23:42:21.437Z,20.89
2022-08-07T23:46:02.268Z,20.71
2022-08-07T23:49:25.273Z,20.84
2022-08-07T23:53:12.006Z,20.18
2022-08-07T23:56:37.943Z,20.53
